Time;durP1;ratioP1;P1;durP2;ratioP2;P2;SDS_P1;SDS_P2;PMS_P1;PMS_P2;Temp;Humidity;BMP_temperature;BMP_pressure;BME280_temperature;BME280_humidity;BME280_pressure;Samples;Min_cycle;Max_cycle;Signal;HPM_P1;HPM_P2
2022/05/22 00:01:23;;;;;;;;;;;12.00;99.90;;;;;;5084110;28;20377;-67
2022/05/22 00:03:48;;;;;;;;;;;11.90;99.90;;;;;;5081676;28;19912;-68
2022/05/22 00:06:14;;;;;;;;;;;11.90;99.90;;;;;;5083522;28;20242;-68
2022/05/22 00:08:39;;;;;;;;;;;12.00;99.90;;;;;;5066306;28;20431;-68
2022/05/22 00:11:05;;;;;;;;;;;11.90;99.90;;;;;;5087733;28;19954;-67
2022/05/22 00:13:31;;;;;;;;;;;11.90;99.90;;;;;;5083520;28;19920;-68
2022/05/22 00:18:40;;;;;;;;;;;11.70;99.90;;;;;;5082591;28;19980;-68
2022/05/22 00:21:06;;;;;;;;;;;11.70;99.90;;;;;;5086818;28;19959;-67
2022/05/22 00:23:33;;;;;;;;;;;11.50;99.90;;;;;;5084890;28;19912;-68
2022/05/22 00:25:59;;;;;;;;;;;11.50;99.90;;;;;;5088531;28;19991;-68
2022/05/22 00:28:25;;;;;;;;;;;11.50;99.90;;;;;;5088960;28;20038;-67
2022/05/22 00:30:50;;;;;;;;;;;11.50;99.90;;;;;;5092506;28;19919;-67
2022/05/22 00:33:16;;;;;;;;;;;11.50;99.90;;;;;;5082842;28;19931;-67
2022/05/22 00:35:43;;;;;;;;;;;11.40;99.90;;;;;;5072190;28;19925;-67
2022/05/22 00:38:08;;;;;;;;;;;11.40;99.90;;;;;;5088612;28;20114;-68
2022/05/22 00:40:34;;;;;;;;;;;11.30;99.90;;;;;;5091567;28;20007;-68
2022/05/22 00:43:01;;;;;;;;;;;11.30;99.90;;;;;;5086304;28;20340;-67
2022/05/22 00:45:26;;;;;;;;;;;11.30;99.90;;;;;;5088825;28;19916;-67
2022/05/22 00:47:53;;;;;;;;;;;11.20;99.90;;;;;;5082719;28;20306;-68
2022/05/22 00:50:19;;;;;;;;;;;11.20;99.90;;;;;;5086202;28;20312;-68
2022/05/22 00:52:53;;;;;;;;;;;11.20;99.90;;;;;;5082736;28;20142;-68
2022/05/22 00:55:24;;;;;;;;;;;11.20;99.90;;;;;;5084092;28;19916;-67
2022/05/22 00:57:55;;;;;;;;;;;11.10;99.90;;;;;;5087640;28;19912;-67
2022/05/22 01:00:24;;;;;;;;;;;11.10;99.90;;;;;;5085736;28;19973;-67
2022/05/22 01:05:37;;;;;;;;;;;11.00;99.90;;;;;;5088677;28;20404;-67
2022/05/22 01:08:03;;;;;;;;;;;11.00;99.90;;;;;;5086683;28;19918;-68
2022/05/22 01:10:38;;;;;;;;;;;10.90;99.90;;;;;;5067036;28;19912;-67
2022/05/22 01:13:04;;;;;;;;;;;10.90;99.90;;;;;;5088461;28;20003;-68
2022/05/22 01:15:30;;;;;;;;;;;10.90;99.90;;;;;;5088945;28;20351;-67
2022/05/22 01:17:55;;;;;;;;;;;10.80;99.90;;;;;;5067814;28;19912;-68
2022/05/22 01:20:21;;;;;;;;;;;10.80;99.90;;;;;;5085670;28;19916;-68
2022/05/22 01:22:46;;;;;;;;;;;10.80;99.90;;;;;;5086354;28;19995;-68
2022/05/22 01:25:12;;;;;;;;;;;10.80;99.90;;;;;;5081593;28;19921;-67
2022/05/22 01:27:39;;;;;;;;;;;10.80;99.90;;;;;;5087130;28;19920;-67
2022/05/22 01:30:18;;;;;;;;;;;10.80;99.90;;;;;;5081812;28;20393;-67
2022/05/22 01:32:45;;;;;;;;;;;10.70;99.90;;;;;;5087058;28;19974;-67
2022/05/22 01:35:11;;;;;;;;;;;10.60;99.90;;;;;;5086809;28;19955;-68
2022/05/22 01:37:37;;;;;;;;;;;10.50;99.90;;;;;;5083279;28;19919;-68
2022/05/22 01:40:03;;;;;;;;;;;10.50;99.90;;;;;;5085341;28;19999;-68
2022/05/22 01:42:29;;;;;;;;;;;10.50;99.90;;;;;;5089441;28;20264;-67
2022/05/22 01:44:55;;;;;;;;;;;10.50;99.90;;;;;;5084624;28;20355;-67
2022/05/22 01:47:20;;;;;;;;;;;10.50;99.90;;;;;;5085693;28;20002;-67
2022/05/22 01:49:46;;;;;;;;;;;10.50;99.90;;;;;;5068994;28;19912;-67
2022/05/22 01:52:11;;;;;;;;;;;10.40;99.90;;;;;;5082037;28;19965;-67
2022/05/22 01:54:37;;;;;;;;;;;10.30;99.90;;;;;;5087059;28;20328;-67
2022/05/22 01:57:03;;;;;;;;;;;10.20;99.90;;;;;;5087617;28;19916;-67
2022/05/22 01:59:28;;;;;;;;;;;10.20;99.90;;;;;;5085136;28;19946;-68
2022/05/22 02:01:54;;;;;;;;;;;10.20;99.90;;;;;;5089076;28;20278;-67
2022/05/22 02:04:20;;;;;;;;;;;10.20;99.90;;;;;;5086605;28;20016;-67
2022/05/22 02:09:29;;;;;;;;;;;10.20;99.90;;;;;;5085283;28;19977;-67
2022/05/22 02:11:55;;;;;;;;;;;10.20;99.90;;;;;;5083530;28;19924;-68
2022/05/22 02:14:21;;;;;;;;;;;10.10;99.90;;;;;;5070428;28;19927;-68
2022/05/22 02:16:46;;;;;;;;;;;10.10;99.90;;;;;;5088342;28;19947;-67
2022/05/22 02:19:12;;;;;;;;;;;10.00;99.90;;;;;;5088377;28;19918;-67
2022/05/22 02:21:37;;;;;;;;;;;10.00;99.90;;;;;;5086697;28;19912;-67
2022/05/22 02:24:03;;;;;;;;;;;10.10;99.90;;;;;;5080624;28;20001;-67
2022/05/22 02:26:29;;;;;;;;;;;10.10;99.90;;;;;;5084383;28;19908;-68
2022/05/22 02:28:54;;;;;;;;;;;10.10;99.90;;;;;;5087458;28;20277;-67
2022/05/22 02:31:20;;;;;;;;;;;10.10;99.90;;;;;;5086392;28;19969;-67
2022/05/22 02:33:45;;;;;;;;;;;10.00;99.90;;;;;;5085946;28;19927;-67
2022/05/22 02:36:13;;;;;;;;;;;10.10;99.90;;;;;;5071018;28;19913;-67
2022/05/22 02:38:39;;;;;;;;;;;10.00;99.90;;;;;;5084261;28;19908;-67
2022/05/22 02:41:12;;;;;;;;;;;10.00;99.90;;;;;;5084715;28;20033;-68
2022/05/22 02:43:37;;;;;;;;;;;10.00;99.90;;;;;;5085069;28;21259;-67
2022/05/22 02:46:07;;;;;;;;;;;9.90;99.90;;;;;;5065845;28;19908;-67
2022/05/22 02:48:33;;;;;;;;;;;9.90;99.90;;;;;;5086372;28;20366;-67
2022/05/22 02:50:58;;;;;;;;;;;9.80;99.90;;;;;;5087948;28;19978;-68
2022/05/22 02:53:24;;;;;;;;;;;9.80;99.90;;;;;;5083167;28;19930;-68
2022/05/22 02:55:49;;;;;;;;;;;9.80;99.90;;;;;;5086229;28;20023;-68
2022/05/22 02:58:15;;;;;;;;;;;9.80;99.90;;;;;;5084102;28;19963;-67
2022/05/22 03:00:40;;;;;;;;;;;9.70;99.90;;;;;;5085882;28;19996;-67
2022/05/22 03:03:06;;;;;;;;;;;9.80;99.90;;;;;;5081648;28;19919;-66
2022/05/22 03:08:17;;;;;;;;;;;9.80;99.90;;;;;;5041571;28;19951;-67
2022/05/22 03:10:44;;;;;;;;;;;9.70;99.90;;;;;;5085839;28;19920;-68
2022/05/22 03:13:10;;;;;;;;;;;9.60;99.90;;;;;;5085977;28;19920;-67
2022/05/22 03:15:36;;;;;;;;;;;9.50;99.90;;;;;;5064704;28;19916;-68
2022/05/22 03:18:02;;;;;;;;;;;9.50;99.90;;;;;;5066035;28;19960;-67
2022/05/22 03:20:30;;;;;;;;;;;9.30;99.90;;;;;;5082030;28;19912;-67
2022/05/22 03:22:55;;;;;;;;;;;9.30;99.90;;;;;;5081287;28;19959;-68
2022/05/22 03:25:21;;;;;;;;;;;9.30;99.90;;;;;;5084005;28;19913;-67
2022/05/22 03:27:46;;;;;;;;;;;9.20;99.90;;;;;;5082654;28;19919;-68
2022/05/22 03:30:12;;;;;;;;;;;9.40;99.90;;;;;;5080184;28;19971;-67
2022/05/22 03:32:37;;;;;;;;;;;9.50;99.90;;;;;;5079907;28;19912;-67
2022/05/22 03:35:03;;;;;;;;;;;9.50;99.90;;;;;;5079108;28;20246;-68
2022/05/22 03:37:28;;;;;;;;;;;9.40;99.90;;;;;;5081972;28;20308;-67
2022/05/22 03:39:54;;;;;;;;;;;9.40;99.90;;;;;;5084650;28;20247;-67
2022/05/22 03:42:20;;;;;;;;;;;9.40;99.90;;;;;;5084526;28;19951;-68
2022/05/22 03:44:46;;;;;;;;;;;9.50;99.90;;;;;;5082872;28;19935;-67
2022/05/22 03:47:12;;;;;;;;;;;9.60;99.90;;;;;;5087753;28;20362;-68
2022/05/22 03:49:37;;;;;;;;;;;9.50;99.90;;;;;;5084406;28;19999;-67
2022/05/22 03:52:03;;;;;;;;;;;9.60;99.90;;;;;;5082017;28;20281;-67
2022/05/22 03:54:28;;;;;;;;;;;9.80;99.90;;;;;;5066107;28;19928;-68
2022/05/22 03:56:54;;;;;;;;;;;9.70;99.90;;;;;;5085364;28;20027;-68
2022/05/22 03:59:20;;;;;;;;;;;9.60;99.90;;;;;;5066169;28;19912;-68
2022/05/22 04:01:45;;;;;;;;;;;9.50;99.90;;;;;;5067841;28;19912;-69
2022/05/22 04:04:11;;;;;;;;;;;9.50;99.90;;;;;;5064075;28;19928;-67
2022/05/22 04:06:36;;;;;;;;;;;9.50;99.90;;;;;;5059450;28;19967;-68
2022/05/22 04:09:02;;;;;;;;;;;9.50;99.90;;;;;;5083269;28;19979;-68
2022/05/22 04:11:28;;;;;;;;;;;9.40;99.90;;;;;;5062772;28;19952;-68
2022/05/22 04:13:53;;;;;;;;;;;9.40;99.90;;;;;;5081332;28;19955;-67
2022/05/22 04:16:19;;;;;;;;;;;9.40;99.90;;;;;;5084963;28;19912;-68
2022/05/22 04:18:44;;;;;;;;;;;9.40;99.90;;;;;;5077750;28;19916;-68
2022/05/22 04:21:11;;;;;;;;;;;9.30;99.90;;;;;;5075376;28;19920;-67
2022/05/22 04:26:21;;;;;;;;;;;9.30;99.90;;;;;;5079821;28;19969;-68
2022/05/22 04:28:46;;;;;;;;;;;9.30;99.90;;;;;;5058246;28;20313;-68
2022/05/22 04:31:12;;;;;;;;;;;9.20;99.90;;;;;;5077907;28;19912;-68
2022/05/22 04:33:37;;;;;;;;;;;9.20;99.90;;;;;;5082846;28;19927;-67
2022/05/22 04:36:04;;;;;;;;;;;9.20;99.90;;;;;;5083040;28;19957;-67
2022/05/22 04:38:30;;;;;;;;;;;9.30;99.90;;;;;;5059810;28;19920;-67
2022/05/22 04:40:56;;;;;;;;;;;9.30;99.90;;;;;;5084012;28;20346;-67
2022/05/22 04:43:23;;;;;;;;;;;9.30;99.90;;;;;;5086326;28;19962;-67
2022/05/22 04:45:48;;;;;;;;;;;9.30;99.90;;;;;;5083031;28;19919;-67
2022/05/22 04:48:14;;;;;;;;;;;9.30;99.90;;;;;;5081777;28;20359;-68
2022/05/22 04:50:39;;;;;;;;;;;9.30;99.90;;;;;;5084286;28;20354;-68
2022/05/22 04:53:05;;;;;;;;;;;9.30;99.90;;;;;;5083429;28;20456;-66
2022/05/22 04:55:31;;;;;;;;;;;9.30;99.90;;;;;;5083774;28;19959;-68
2022/05/22 04:57:56;;;;;;;;;;;9.30;99.90;;;;;;5087099;28;19912;-68
2022/05/22 05:00:22;;;;;;;;;;;9.40;99.90;;;;;;5067659;28;19916;-67
2022/05/22 05:02:47;;;;;;;;;;;9.50;99.90;;;;;;5087757;28;19947;-67
2022/05/22 05:05:13;;;;;;;;;;;9.50;99.90;;;;;;5078449;28;19912;-67
2022/05/22 05:07:40;;;;;;;;;;;9.60;99.90;;;;;;5083547;28;20431;-67
2022/05/22 05:10:07;;;;;;;;;;;9.50;99.90;;;;;;5079241;28;19913;-67
2022/05/22 05:12:36;;;;;;;;;;;9.50;99.90;;;;;;5082969;28;20344;-67
2022/05/22 05:15:03;;;;;;;;;;;9.60;99.90;;;;;;5084713;28;19916;-67
2022/05/22 05:17:28;;;;;;;;;;;9.60;99.90;;;;;;5086818;28;20364;-68
2022/05/22 05:19:54;;;;;;;;;;;9.60;99.90;;;;;;5085827;28;19912;-67
2022/05/22 05:22:19;;;;;;;;;;;9.60;99.90;;;;;;5088470;28;19912;-67
2022/05/22 05:24:45;;;;;;;;;;;9.60;99.90;;;;;;5090318;28;20264;-67
2022/05/22 05:27:10;;;;;;;;;;;9.60;99.90;;;;;;5088012;28;19916;-67
2022/05/22 05:29:36;;;;;;;;;;;9.60;99.90;;;;;;5064163;28;19919;-67
2022/05/22 05:32:01;;;;;;;;;;;9.60;99.90;;;;;;5086566;28;19920;-66
2022/05/22 05:34:27;;;;;;;;;;;9.60;99.90;;;;;;5088985;28;19917;-66
2022/05/22 05:36:53;;;;;;;;;;;9.50;99.90;;;;;;5087224;28;19916;-68
2022/05/22 05:39:18;;;;;;;;;;;9.60;99.90;;;;;;5085204;28;19912;-66
2022/05/22 05:41:44;;;;;;;;;;;9.60;99.90;;;;;;5089124;28;19916;-67
2022/05/22 05:44:09;;;;;;;;;;;9.60;99.90;;;;;;5071339;28;19913;-67
2022/05/22 05:46:36;;;;;;;;;;;9.60;99.90;;;;;;5069571;28;19916;-67
2022/05/22 05:49:02;;;;;;;;;;;9.60;99.90;;;;;;5085833;28;19912;-66
2022/05/22 05:51:28;;;;;;;;;;;9.80;99.90;;;;;;5087946;28;19912;-67
2022/05/22 05:53:53;;;;;;;;;;;9.80;99.90;;;;;;5087154;28;19977;-66
2022/05/22 05:56:19;;;;;;;;;;;9.90;99.90;;;;;;5081984;28;19920;-67
2022/05/22 05:58:45;;;;;;;;;;;9.90;99.90;;;;;;5082822;28;19912;-66
2022/05/22 06:01:11;;;;;;;;;;;9.90;99.90;;;;;;5086258;28;19916;-67
2022/05/22 06:03:36;;;;;;;;;;;10.00;99.90;;;;;;5088993;28;20276;-68
2022/05/22 06:06:05;;;;;;;;;;;10.10;99.90;;;;;;5085525;28;19912;-67
2022/05/22 06:08:30;;;;;;;;;;;10.20;99.90;;;;;;5084383;28;20038;-67
2022/05/22 06:10:56;;;;;;;;;;;10.30;99.90;;;;;;5085680;28;20018;-66
2022/05/22 06:13:21;;;;;;;;;;;10.40;99.90;;;;;;5087128;28;19968;-67
2022/05/22 06:15:47;;;;;;;;;;;10.50;99.90;;;;;;5086354;28;19920;-67
2022/05/22 06:18:13;;;;;;;;;;;10.60;99.90;;;;;;5086597;28;20263;-67
2022/05/22 06:20:38;;;;;;;;;;;10.70;99.90;;;;;;5089568;28;19916;-68
2022/05/22 06:23:05;;;;;;;;;;;10.80;99.90;;;;;;5085970;28;19912;-68
2022/05/22 06:25:31;;;;;;;;;;;10.80;99.90;;;;;;5084011;28;19924;-66
2022/05/22 06:27:57;;;;;;;;;;;11.00;99.90;;;;;;5085607;28;20027;-66
2022/05/22 06:30:24;;;;;;;;;;;11.00;99.90;;;;;;5087757;28;19916;-67
2022/05/22 06:32:50;;;;;;;;;;;11.20;99.90;;;;;;5085120;28;20376;-66
2022/05/22 06:35:16;;;;;;;;;;;11.30;99.90;;;;;;5062578;28;20006;-67
2022/05/22 06:37:41;;;;;;;;;;;11.30;99.90;;;;;;5078826;28;20007;-67
2022/05/22 06:40:08;;;;;;;;;;;11.40;99.90;;;;;;5085447;28;19912;-67
2022/05/22 06:42:35;;;;;;;;;;;11.60;99.90;;;;;;5072320;28;19919;-67
2022/05/22 06:45:11;;;;;;;;;;;11.80;99.90;;;;;;5083496;28;20364;-67
2022/05/22 06:47:37;;;;;;;;;;;12.00;99.90;;;;;;5080563;28;19924;-66
2022/05/22 06:50:04;;;;;;;;;;;12.10;99.90;;;;;;5090130;28;20293;-67
2022/05/22 06:52:30;;;;;;;;;;;12.20;99.90;;;;;;5084725;28;20438;-67
2022/05/22 06:54:55;;;;;;;;;;;12.20;99.90;;;;;;5084919;28;19912;-67
2022/05/22 06:57:21;;;;;;;;;;;12.40;99.90;;;;;;5089979;28;19939;-68
2022/05/22 06:59:48;;;;;;;;;;;12.60;99.90;;;;;;5088422;28;19920;-68
2022/05/22 07:02:14;;;;;;;;;;;12.70;99.90;;;;;;5065125;28;19916;-67
2022/05/22 07:04:39;;;;;;;;;;;12.80;99.90;;;;;;5085508;28;19912;-67
2022/05/22 07:07:06;;;;;;;;;;;12.90;99.90;;;;;;5065789;28;19960;-66
2022/05/22 07:09:31;;;;;;;;;;;13.00;99.90;;;;;;5089050;28;19928;-67
2022/05/22 07:11:59;;;;;;;;;;;13.10;99.90;;;;;;5083211;28;20326;-67
2022/05/22 07:14:25;;;;;;;;;;;13.30;99.90;;;;;;5081137;28;19920;-66
2022/05/22 07:16:51;;;;;;;;;;;13.60;99.90;;;;;;5059554;28;20394;-67
2022/05/22 07:19:18;;;;;;;;;;;13.70;99.90;;;;;;5083802;28;19912;-67
2022/05/22 07:21:44;;;;;;;;;;;13.80;99.90;;;;;;5085030;28;20401;-66
2022/05/22 07:24:10;;;;;;;;;;;14.00;99.90;;;;;;5086047;28;19950;-67
2022/05/22 07:26:36;;;;;;;;;;;14.20;99.90;;;;;;5086323;28;19970;-68
2022/05/22 07:29:02;;;;;;;;;;;14.30;99.90;;;;;;5084642;28;19912;-67
2022/05/22 07:31:28;;;;;;;;;;;14.50;99.90;;;;;;5084466;28;19920;-66
2022/05/22 07:33:54;;;;;;;;;;;14.50;99.90;;;;;;5081686;28;20366;-67
2022/05/22 07:36:20;;;;;;;;;;;14.60;99.90;;;;;;5085415;28;20181;-67
2022/05/22 07:38:46;;;;;;;;;;;14.80;99.90;;;;;;5082436;28;20293;-66
2022/05/22 07:41:14;;;;;;;;;;;14.80;99.90;;;;;;5082271;28;19912;-66
2022/05/22 07:43:43;;;;;;;;;;;15.00;99.90;;;;;;5081270;28;19920;-66
2022/05/22 07:46:11;;;;;;;;;;;15.00;99.90;;;;;;5083453;28;19912;-67
2022/05/22 07:48:37;;;;;;;;;;;15.10;99.90;;;;;;5084381;28;19912;-65
2022/05/22 07:51:03;;;;;;;;;;;15.20;99.90;;;;;;5087135;28;19943;-66
2022/05/22 07:53:30;;;;;;;;;;;15.30;99.90;;;;;;5084143;28;19920;-67
2022/05/22 07:55:55;;;;;;;;;;;15.40;99.90;;;;;;5077743;28;19927;-67
2022/05/22 07:58:21;;;;;;;;;;;15.50;99.90;;;;;;5066803;28;19912;-66
2022/05/22 08:00:49;;;;;;;;;;;15.60;99.90;;;;;;5080747;28;19913;-67
2022/05/22 08:03:15;;;;;;;;;;;15.80;99.90;;;;;;5087754;28;19916;-66
2022/05/22 08:05:41;;;;;;;;;;;15.70;99.90;;;;;;5081749;28;19916;-69
2022/05/22 08:08:07;;;;;;;;;;;15.90;99.90;;;;;;5045665;28;20326;-69
2022/05/22 08:10:33;;;;;;;;;;;16.20;99.90;;;;;;5086081;28;19928;-69
2022/05/22 08:12:58;;;;;;;;;;;16.40;99.90;;;;;;5080345;28;19920;-69
2022/05/22 08:15:29;;;;;;;;;;;16.50;99.90;;;;;;5082380;28;19916;-70
2022/05/22 08:17:56;;;;;;;;;;;16.70;99.90;;;;;;5081337;28;19919;-72
2022/05/22 08:20:22;;;;;;;;;;;16.90;99.90;;;;;;5074806;28;20009;-74
2022/05/22 08:22:47;;;;;;;;;;;17.20;99.90;;;;;;5083916;28;20009;-74
2022/05/22 08:25:14;;;;;;;;;;;17.30;99.90;;;;;;5086219;28;19958;-74
2022/05/22 08:27:40;;;;;;;;;;;17.50;99.90;;;;;;5087947;28;19920;-72
2022/05/22 08:30:06;;;;;;;;;;;17.50;99.90;;;;;;5067921;28;19987;-70
2022/05/22 08:32:36;;;;;;;;;;;17.50;99.90;;;;;;5068977;28;19920;-70
2022/05/22 08:35:01;;;;;;;;;;;17.70;99.90;;;;;;5086850;28;19920;-72
2022/05/22 08:37:27;;;;;;;;;;;17.80;99.90;;;;;;5085979;28;19935;-70
2022/05/22 08:39:53;;;;;;;;;;;17.80;99.90;;;;;;5064545;28;19912;-69
2022/05/22 08:42:20;;;;;;;;;;;17.90;99.90;;;;;;5106947;28;19954;-70
2022/05/22 08:44:47;;;;;;;;;;;18.00;99.90;;;;;;5089426;28;19924;-70
2022/05/22 08:47:31;;;;;;;;;;;18.10;99.90;;;;;;5092733;28;19908;-69
2022/05/22 08:50:06;;;;;;;;;;;18.10;99.90;;;;;;5093595;28;19904;-70
2022/05/22 08:52:39;;;;;;;;;;;18.20;99.90;;;;;;5100670;28;19916;-70
2022/05/22 08:55:07;;;;;;;;;;;18.20;99.90;;;;;;5079341;28;19919;-71
2022/05/22 09:00:22;;;;;;;;;;;18.30;99.90;;;;;;5084349;28;20029;-70
2022/05/22 09:02:57;;;;;;;;;;;18.50;99.90;;;;;;5081156;28;20364;-70
2022/05/22 09:05:23;;;;;;;;;;;18.60;99.90;;;;;;5085846;28;19912;-69
2022/05/22 09:07:52;;;;;;;;;;;18.70;99.90;;;;;;5090387;28;20007;-69
2022/05/22 09:10:53;;;;;;;;;;;18.80;99.90;;;;;;5073381;28;20385;-70
2022/05/22 09:13:33;;;;;;;;;;;18.90;99.90;;;;;;5087724;28;19927;-71
2022/05/22 09:16:05;;;;;;;;;;;19.30;99.90;;;;;;5081891;28;19916;-70
2022/05/22 09:18:37;;;;;;;;;;;19.70;99.90;;;;;;5072266;28;19966;-71
2022/05/22 09:21:11;;;;;;;;;;;20.10;99.90;;;;;;5094831;28;19943;-70
2022/05/22 09:23:56;;;;;;;;;;;20.50;99.90;;;;;;5074708;28;20432;-70
2022/05/22 09:26:57;;;;;;;;;;;20.90;99.30;;;;;;5089999;28;20013;-70
2022/05/22 09:29:23;;;;;;;;;;;21.30;97.20;;;;;;4986131;28;19922;-69
2022/05/22 09:31:54;;;;;;;;;;;21.40;95.20;;;;;;5064227;28;19964;-69
2022/05/22 09:34:25;;;;;;;;;;;21.40;94.30;;;;;;5087813;28;20002;-69
2022/05/22 09:37:11;;;;;;;;;;;21.20;95.20;;;;;;5091281;28;19912;-70
2022/05/22 09:39:55;;;;;;;;;;;21.20;95.00;;;;;;5078186;28;19912;-70
2022/05/22 09:42:21;;;;;;;;;;;21.30;93.90;;;;;;5086352;28;19958;-70
2022/05/22 09:45:02;;;;;;;;;;;21.50;93.50;;;;;;5071976;28;20276;-70
2022/05/22 09:47:46;;;;;;;;;;;21.60;93.00;;;;;;5083560;28;20016;-71
2022/05/22 09:50:20;;;;;;;;;;;21.30;93.50;;;;;;5087954;28;19942;-70
2022/05/22 09:52:50;;;;;;;;;;;21.30;93.50;;;;;;5089516;28;20759;-71
2022/05/22 09:55:37;;;;;;;;;;;21.40;93.10;;;;;;5090917;28;19978;-70
2022/05/22 09:58:03;;;;;;;;;;;21.40;92.30;;;;;;5089929;28;19915;-71
2022/05/22 10:00:33;;;;;;;;;;;21.20;91.90;;;;;;5064769;28;20274;-71
2022/05/22 10:03:18;;;;;;;;;;;21.20;91.60;;;;;;5082191;28;20351;-71
2022/05/22 10:06:03;;;;;;;;;;;21.30;92.10;;;;;;5081745;28;19912;-70
2022/05/22 10:08:31;;;;;;;;;;;21.30;91.80;;;;;;5088561;28;20281;-70
2022/05/22 10:11:15;;;;;;;;;;;21.30;92.00;;;;;;5091236;28;19912;-70
2022/05/22 10:14:00;;;;;;;;;;;21.40;91.50;;;;;;5089170;28;19946;-70
2022/05/22 10:16:36;;;;;;;;;;;21.30;90.80;;;;;;5088770;28;19912;-70
2022/05/22 10:19:04;;;;;;;;;;;20.90;90.90;;;;;;5088847;28;19919;-69
2022/05/22 10:21:33;;;;;;;;;;;21.10;90.30;;;;;;5069655;28;19912;-70
2022/05/22 10:24:18;;;;;;;;;;;21.20;89.00;;;;;;5089173;28;20289;-69
2022/05/22 10:27:02;;;;;;;;;;;21.00;88.90;;;;;;5088085;28;19925;-70
2022/05/22 10:29:34;;;;;;;;;;;20.90;89.20;;;;;;5087520;28;19920;-71
2022/05/22 10:32:06;;;;;;;;;;;20.80;88.70;;;;;;5086495;28;19920;-69
2022/05/22 10:34:34;;;;;;;;;;;20.80;89.40;;;;;;5087511;28;20305;-69
2022/05/22 10:37:03;;;;;;;;;;;20.90;89.30;;;;;;5090370;28;19924;-70
2022/05/22 10:39:28;;;;;;;;;;;20.80;88.90;;;;;;5069526;28;19973;-70
2022/05/22 10:44:39;;;;;;;;;;;21.00;89.30;;;;;;5076817;28;19920;-72
2022/05/22 10:47:06;;;;;;;;;;;21.00;89.60;;;;;;5082502;28;20353;-73
2022/05/22 10:49:50;;;;;;;;;;;20.80;90.40;;;;;;5066800;28;20307;-73
2022/05/22 10:52:22;;;;;;;;;;;20.70;90.40;;;;;;5061653;28;19912;-74
2022/05/22 10:54:50;;;;;;;;;;;20.60;91.40;;;;;;5077971;28;19967;-73
2022/05/22 10:57:17;;;;;;;;;;;20.50;91.70;;;;;;5081824;28;20337;-75
2022/05/22 10:59:43;;;;;;;;;;;20.50;92.00;;;;;;5066401;28;19961;-74
2022/05/22 11:02:17;;;;;;;;;;;20.50;92.00;;;;;;5085680;28;20380;-73
2022/05/22 11:04:44;;;;;;;;;;;20.70;91.90;;;;;;5084710;28;19913;-72
2022/05/22 11:07:10;;;;;;;;;;;20.60;92.70;;;;;;5081511;28;19981;-73
2022/05/22 11:09:45;;;;;;;;;;;20.70;92.30;;;;;;5064926;28;19939;-74
2022/05/22 11:12:12;;;;;;;;;;;20.80;91.80;;;;;;5085469;28;20359;-74
2022/05/22 11:14:39;;;;;;;;;;;20.80;91.90;;;;;;5078848;28;20022;-75
2022/05/22 11:17:13;;;;;;;;;;;20.80;91.20;;;;;;5085794;28;20168;-75
2022/05/22 11:19:40;;;;;;;;;;;20.90;91.00;;;;;;5081756;28;20397;-73
2022/05/22 11:22:06;;;;;;;;;;;20.90;90.70;;;;;;5079517;28;19947;-73
2022/05/22 11:24:40;;;;;;;;;;;21.00;90.80;;;;;;5088849;28;19973;-72
2022/05/22 11:27:12;;;;;;;;;;;21.00;90.80;;;;;;5080660;28;19949;-72
2022/05/22 11:29:57;;;;;;;;;;;21.10;90.40;;;;;;5068071;28;19916;-71
2022/05/22 11:32:32;;;;;;;;;;;21.10;90.30;;;;;;5080712;28;19912;-73
2022/05/22 11:35:06;;;;;;;;;;;21.00;90.30;;;;;;5079970;28;20496;-73
2022/05/22 11:37:34;;;;;;;;;;;21.10;90.20;;;;;;5073284;28;20046;-72
2022/05/22 11:40:03;;;;;;;;;;;21.20;91.00;;;;;;5079487;28;19940;-72
2022/05/22 11:42:37;;;;;;;;;;;21.20;91.20;;;;;;5064818;28;19913;-72
2022/05/22 11:45:21;;;;;;;;;;;21.40;90.90;;;;;;5086498;28;19912;-72
2022/05/22 11:48:19;;;;;;;;;;;21.50;91.00;;;;;;5076988;28;19938;-72
2022/05/22 11:50:54;;;;;;;;;;;21.60;90.80;;;;;;5037018;28;19991;-71
2022/05/22 11:53:29;;;;;;;;;;;21.80;90.90;;;;;;5077000;28;19920;-73
2022/05/22 11:55:58;;;;;;;;;;;22.10;90.30;;;;;;5081189;28;19913;-72
2022/05/22 11:58:36;;;;;;;;;;;22.40;89.80;;;;;;5081710;28;20043;-74
2022/05/22 12:01:12;;;;;;;;;;;22.50;88.20;;;;;;5082840;28;20030;-72
2022/05/22 12:03:47;;;;;;;;;;;22.40;89.10;;;;;;5077271;28;20034;-71
2022/05/22 12:06:22;;;;;;;;;;;22.50;89.20;;;;;;5082869;28;19912;-72
2022/05/22 12:08:47;;;;;;;;;;;22.50;89.30;;;;;;5069584;28;19912;-72
2022/05/22 12:11:17;;;;;;;;;;;22.30;89.70;;;;;;5084965;28;20021;-71
2022/05/22 12:13:46;;;;;;;;;;;22.10;89.40;;;;;;5060501;28;19960;-72
2022/05/22 12:16:36;;;;;;;;;;;21.90;90.10;;;;;;5059339;28;20006;-73
2022/05/22 12:19:10;;;;;;;;;;;21.90;90.10;;;;;;5065679;28;19991;-72
2022/05/22 12:21:58;;;;;;;;;;;22.20;90.00;;;;;;5059476;28;19913;-72
2022/05/22 12:24:37;;;;;;;;;;;22.40;90.10;;;;;;5061008;28;20331;-73
2022/05/22 12:27:06;;;;;;;;;;;22.70;89.30;;;;;;5055703;28;19920;-72
2022/05/22 12:29:41;;;;;;;;;;;22.80;88.80;;;;;;5063513;28;20487;-74
2022/05/22 12:32:20;;;;;;;;;;;23.00;88.80;;;;;;5076064;28;19912;-76
2022/05/22 12:34:48;;;;;;;;;;;22.90;88.90;;;;;;5080997;28;19951;-72
2022/05/22 12:37:26;;;;;;;;;;;22.90;89.20;;;;;;5089808;28;19958;-72
2022/05/22 12:39:57;;;;;;;;;;;22.80;88.90;;;;;;5082600;28;19937;-75
2022/05/22 12:42:27;;;;;;;;;;;23.10;88.70;;;;;;5086360;28;19909;-73
2022/05/22 12:44:53;;;;;;;;;;;23.30;88.10;;;;;;5077361;28;19921;-74
2022/05/22 12:47:19;;;;;;;;;;;23.00;87.30;;;;;;5084398;28;19946;-73
2022/05/22 12:49:58;;;;;;;;;;;23.10;87.30;;;;;;5073422;28;19958;-74
2022/05/22 12:52:23;;;;;;;;;;;23.00;87.30;;;;;;5081470;28;19932;-72
2022/05/22 12:54:57;;;;;;;;;;;23.10;86.60;;;;;;5077579;28;20283;-74
2022/05/22 12:57:23;;;;;;;;;;;23.10;87.00;;;;;;5075156;28;19916;-72
2022/05/22 12:59:58;;;;;;;;;;;23.20;85.60;;;;;;5073479;28;19981;-70
2022/05/22 13:02:32;;;;;;;;;;;23.10;84.70;;;;;;5089549;28;19920;-76
2022/05/22 13:04:58;;;;;;;;;;;23.20;84.90;;;;;;5076068;28;20374;-73
2022/05/22 13:07:34;;;;;;;;;;;23.20;85.90;;;;;;5067964;28;19916;-72
2022/05/22 13:10:12;;;;;;;;;;;23.10;85.60;;;;;;5069751;28;20267;-74
2022/05/22 13:12:38;;;;;;;;;;;22.80;84.80;;;;;;5085310;28;19930;-72
2022/05/22 13:15:03;;;;;;;;;;;22.70;85.60;;;;;;5100771;28;20334;-70
2022/05/22 13:17:43;;;;;;;;;;;22.70;85.70;;;;;;5102415;28;19979;-69
2022/05/22 13:20:26;;;;;;;;;;;22.40;85.30;;;;;;5095089;28;19980;-71
2022/05/22 13:23:03;;;;;;;;;;;22.20;86.50;;;;;;5055566;28;19944;-72
2022/05/22 13:25:31;;;;;;;;;;;21.90;87.60;;;;;;5095178;28;19951;-71
2022/05/22 13:27:57;;;;;;;;;;;22.10;87.10;;;;;;5100926;28;20416;-71
2022/05/22 13:30:24;;;;;;;;;;;22.20;87.20;;;;;;5098007;28;19920;-72
2022/05/22 13:33:00;;;;;;;;;;;22.40;87.40;;;;;;5086088;28;20342;-73
2022/05/22 13:35:30;;;;;;;;;;;22.80;86.60;;;;;;5096673;28;19920;-72
2022/05/22 13:37:56;;;;;;;;;;;22.90;85.60;;;;;;5095176;28;19920;-71
2022/05/22 13:40:32;;;;;;;;;;;23.10;84.60;;;;;;5097913;28;19912;-71
2022/05/22 13:43:16;;;;;;;;;;;23.10;84.60;;;;;;5096490;28;19916;-71
2022/05/22 13:46:00;;;;;;;;;;;23.00;84.40;;;;;;5101272;28;19979;-70
2022/05/22 13:48:30;;;;;;;;;;;23.10;84.40;;;;;;5111131;28;19908;-70
2022/05/22 13:54:35;;;;;;;;;;;23.30;85.20;;;;;;5105400;28;19951;-71
2022/05/22 13:57:02;;;;;;;;;;;23.40;83.90;;;;;;5047176;28;19921;-70
2022/05/22 13:59:30;;;;;;;;;;;23.40;84.00;;;;;;5073568;28;20022;-70
2022/05/22 14:02:00;;;;;;;;;;;23.30;83.30;;;;;;5087763;28;19987;-69
2022/05/22 14:04:26;;;;;;;;;;;23.30;83.80;;;;;;5078003;28;19952;-72
2022/05/22 14:06:52;;;;;;;;;;;23.40;83.70;;;;;;5064443;28;19912;-73
2022/05/22 14:09:28;;;;;;;;;;;23.40;83.70;;;;;;5081659;28;19919;-73
2022/05/22 14:11:54;;;;;;;;;;;23.50;84.20;;;;;;5095591;28;19963;-73
2022/05/22 14:14:31;;;;;;;;;;;23.80;83.80;;;;;;5090796;28;20463;-72
2022/05/22 14:17:02;;;;;;;;;;;24.20;82.50;;;;;;5091669;28;20396;-74
2022/05/22 14:19:34;;;;;;;;;;;23.80;82.20;;;;;;5088184;28;19947;-72
2022/05/22 14:22:26;;;;;;;;;;;23.80;82.90;;;;;;5090503;28;19919;-73
2022/05/22 14:24:53;;;;;;;;;;;23.90;82.40;;;;;;5079940;28;19912;-73
2022/05/22 14:27:31;;;;;;;;;;;24.10;82.30;;;;;;5087604;28;19930;-71
2022/05/22 14:30:09;;;;;;;;;;;24.00;82.70;;;;;;5087673;28;20384;-74
2022/05/22 14:32:36;;;;;;;;;;;23.70;83.30;;;;;;5086151;28;19919;-72
2022/05/22 14:35:28;;;;;;;;;;;23.60;82.80;;;;;;5090910;28;20377;-73
2022/05/22 14:37:54;;;;;;;;;;;23.70;83.50;;;;;;5082917;28;19988;-72
2022/05/22 14:40:22;;;;;;;;;;;24.20;82.60;;;;;;5091416;28;19962;-72
2022/05/22 14:42:49;;;;;;;;;;;24.30;82.00;;;;;;5087630;28;19924;-72
2022/05/22 14:45:35;;;;;;;;;;;25.20;80.80;;;;;;5089851;28;19916;-74
2022/05/22 14:48:10;;;;;;;;;;;26.80;78.40;;;;;;5070243;28;20642;-73
2022/05/22 14:50:36;;;;;;;;;;;27.80;74.80;;;;;;5091257;28;19920;-73
2022/05/22 14:53:04;;;;;;;;;;;27.80;74.00;;;;;;5087792;28;19945;-72
2022/05/22 14:55:36;;;;;;;;;;;27.70;73.60;;;;;;5089165;28;21010;-72